sensor_id;sensor_type;location;lat;lon;timestamp;pressure;altitude;pressure_sealevel;temperature;humidity
8286;BME280;4181;43.416;24.598;2023-01-28T00:00:33;99595.69;;;4.23;100.00
8286;BME280;4181;43.416;24.598;2023-01-28T00:02:58;99592.41;;;4.39;100.00
8286;BME280;4181;43.416;24.598;2023-01-28T00:05:24;99594.81;;;4.47;100.00
8286;BME280;4181;43.416;24.598;2023-01-28T00:07:50;99593.97;;;4.46;100.00
8286;BME280;4181;43.416;24.598;2023-01-28T00:10:16;99584.44;;;4.44;100.00
8286;BME280;4181;43.416;24.598;2023-01-28T00:12:42;99584.59;;;4.49;100.00
8286;BME280;4181;43.416;24.598;2023-01-28T00:15:08;99589.63;;;4.45;100.00
8286;BME280;4181;43.416;24.598;2023-01-28T00:17:35;99597.50;;;4.47;100.00
8286;BME280;4181;43.416;24.598;2023-01-28T00:20:04;99600.97;;;4.54;100.00
8286;BME280;4181;43.416;24.598;2023-01-28T00:22:30;99605.59;;;4.47;100.00
8286;BME280;4181;43.416;24.598;2023-01-28T00:24:56;99618.66;;;4.50;100.00
8286;BME280;4181;43.416;24.598;2023-01-28T00:27:22;99621.97;;;4.52;100.00
8286;BME280;4181;43.416;24.598;2023-01-28T00:29:47;99607.16;;;4.54;100.00
8286;BME280;4181;43.416;24.598;2023-01-28T00:32:13;99613.09;;;4.63;100.00
8286;BME280;4181;43.416;24.598;2023-01-28T00:34:39;99625.34;;;4.65;100.00
8286;BME280;4181;43.416;24.598;2023-01-28T00:37:04;99625.91;;;4.49;100.00
8286;BME280;4181;43.416;24.598;2023-01-28T00:39:30;99624.06;;;4.50;100.00
8286;BME280;4181;43.416;24.598;2023-01-28T00:41:56;99629.38;;;4.56;100.00
8286;BME280;4181;43.416;24.598;2023-01-28T00:44:21;99634.31;;;4.59;100.00
8286;BME280;4181;43.416;24.598;2023-01-28T00:46:47;99646.28;;;4.52;100.00
8286;BME280;4181;43.416;24.598;2023-01-28T00:49:12;99648.56;;;4.30;100.00
8286;BME280;4181;43.416;24.598;2023-01-28T00:51:38;99641.00;;;4.39;100.00
8286;BME280;4181;43.416;24.598;2023-01-28T00:54:03;99633.78;;;4.51;100.00
8286;BME280;4181;43.416;24.598;2023-01-28T00:56:29;99638.25;;;4.45;100.00
8286;BME280;4181;43.416;24.598;2023-01-28T00:58:54;99643.41;;;4.47;100.00
8286;BME280;4181;43.416;24.598;2023-01-28T01:01:22;99638.09;;;4.40;100.00
8286;BME280;4181;43.416;24.598;2023-01-28T01:03:49;99651.06;;;4.32;100.00
8286;BME280;4181;43.416;24.598;2023-01-28T01:06:23;99642.09;;;4.13;100.00
8286;BME280;4181;43.416;24.598;2023-01-28T01:08:49;99643.56;;;4.09;100.00
8286;BME280;4181;43.416;24.598;2023-01-28T01:11:15;99639.63;;;4.12;100.00
8286;BME280;4181;43.416;24.598;2023-01-28T01:13:41;99639.63;;;4.12;100.00
8286;BME280;4181;43.416;24.598;2023-01-28T01:16:13;99640.94;;;4.27;100.00
8286;BME280;4181;43.416;24.598;2023-01-28T01:18:40;99643.97;;;4.31;100.00
8286;BME280;4181;43.416;24.598;2023-01-28T01:21:17;99644.97;;;4.36;100.00
8286;BME280;4181;43.416;24.598;2023-01-28T01:23:44;99654.28;;;4.22;100.00
8286;BME280;4181;43.416;24.598;2023-01-28T01:26:09;99647.25;;;4.15;100.00
8286;BME280;4181;43.416;24.598;2023-01-28T01:28:36;99647.97;;;4.28;100.00
8286;BME280;4181;43.416;24.598;2023-01-28T01:31:10;99639.50;;;4.43;100.00
8286;BME280;4181;43.416;24.598;2023-01-28T01:33:36;99633.06;;;4.44;100.00
8286;BME280;4181;43.416;24.598;2023-01-28T01:36:04;99654.75;;;4.37;100.00
8286;BME280;4181;43.416;24.598;2023-01-28T01:38:30;99652.22;;;4.36;100.00
8286;BME280;4181;43.416;24.598;2023-01-28T01:40:59;99648.38;;;4.50;100.00
8286;BME280;4181;43.416;24.598;2023-01-28T01:43:51;99652.84;;;4.56;100.00
8286;BME280;4181;43.416;24.598;2023-01-28T01:46:23;99654.06;;;4.60;100.00
8286;BME280;4181;43.416;24.598;2023-01-28T01:48:50;99660.38;;;4.54;100.00
8286;BME280;4181;43.416;24.598;2023-01-28T01:51:21;99670.81;;;4.50;100.00
8286;BME280;4181;43.416;24.598;2023-01-28T01:53:51;99673.91;;;4.54;100.00
8286;BME280;4181;43.416;24.598;2023-01-28T01:56:21;99669.22;;;4.61;100.00
8286;BME280;4181;43.416;24.598;2023-01-28T01:58:49;99669.91;;;4.56;100.00
8286;BME280;4181;43.416;24.598;2023-01-28T02:01:25;99682.63;;;4.31;100.00
8286;BME280;4181;43.416;24.598;2023-01-28T02:04:00;99675.38;;;4.50;100.00
8286;BME280;4181;43.416;24.598;2023-01-28T02:06:27;99673.72;;;4.49;100.00
8286;BME280;4181;43.416;24.598;2023-01-28T02:08:55;99670.19;;;4.48;100.00
8286;BME280;4181;43.416;24.598;2023-01-28T02:11:21;99672.06;;;4.48;100.00
8286;BME280;4181;43.416;24.598;2023-01-28T02:13:52;99683.38;;;4.38;100.00
8286;BME280;4181;43.416;24.598;2023-01-28T02:16:18;99682.63;;;4.31;100.00
8286;BME280;4181;43.416;24.598;2023-01-28T02:18:44;99681.78;;;4.31;100.00
8286;BME280;4181;43.416;24.598;2023-01-28T02:29:49;99680.00;;;4.43;100.00
8286;BME280;4181;43.416;24.598;2023-01-28T02:32:38;99697.97;;;4.31;100.00
8286;BME280;4181;43.416;24.598;2023-01-28T02:38:03;99692.41;;;4.26;100.00
8286;BME280;4181;43.416;24.598;2023-01-28T02:40:35;99683.91;;;4.29;100.00
8286;BME280;4181;43.416;24.598;2023-01-28T02:46:03;99683.25;;;4.51;100.00
8286;BME280;4181;43.416;24.598;2023-01-28T02:48:53;99690.38;;;4.46;100.00
8286;BME280;4181;43.416;24.598;2023-01-28T02:54:20;99698.91;;;4.43;100.00
8286;BME280;4181;43.416;24.598;2023-01-28T02:56:58;99698.69;;;4.44;100.00
8286;BME280;4181;43.416;24.598;2023-01-28T02:59:48;99709.56;;;4.38;100.00
8286;BME280;4181;43.416;24.598;2023-01-28T03:02:20;99706.47;;;4.34;100.00
8286;BME280;4181;43.416;24.598;2023-01-28T03:05:06;99703.88;;;4.46;100.00
8286;BME280;4181;43.416;24.598;2023-01-28T03:07:36;99695.28;;;4.55;100.00
8286;BME280;4181;43.416;24.598;2023-01-28T03:10:04;99707.13;;;4.54;100.00
8286;BME280;4181;43.416;24.598;2023-01-28T03:12:32;99719.56;;;4.37;100.00
8286;BME280;4181;43.416;24.598;2023-01-28T03:18:19;99712.28;;;4.56;100.00
8286;BME280;4181;43.416;24.598;2023-01-28T03:24:08;99725.38;;;4.34;100.00
8286;BME280;4181;43.416;24.598;2023-01-28T03:29:54;99734.84;;;4.43;100.00
8286;BME280;4181;43.416;24.598;2023-01-28T03:32:39;99735.69;;;4.44;100.00
8286;BME280;4181;43.416;24.598;2023-01-28T03:35:28;99748.19;;;4.38;100.00
8286;BME280;4181;43.416;24.598;2023-01-28T03:38:13;99739.09;;;4.33;100.00
8286;BME280;4181;43.416;24.598;2023-01-28T03:40:55;99735.69;;;4.44;100.00
8286;BME280;4181;43.416;24.598;2023-01-28T03:43:21;99741.56;;;4.34;100.00
8286;BME280;4181;43.416;24.598;2023-01-28T03:45:47;99746.41;;;4.01;100.00
8286;BME280;4181;43.416;24.598;2023-01-28T03:48:20;99735.00;;;3.99;100.00
8286;BME280;4181;43.416;24.598;2023-01-28T03:50:47;99728.03;;;4.16;100.00
8286;BME280;4181;43.416;24.598;2023-01-28T03:53:13;99724.19;;;4.30;100.00
8286;BME280;4181;43.416;24.598;2023-01-28T03:55:43;99724.72;;;4.39;100.00
8286;BME280;4181;43.416;24.598;2023-01-28T03:58:10;99734.59;;;4.27;100.00
8286;BME280;4181;43.416;24.598;2023-01-28T04:00:36;99732.91;;;4.26;100.00
8286;BME280;4181;43.416;24.598;2023-01-28T04:03:14;99736.56;;;4.38;100.00
8286;BME280;4181;43.416;24.598;2023-01-28T04:05:46;99744.59;;;4.44;100.00
8286;BME280;4181;43.416;24.598;2023-01-28T04:08:12;99757.72;;;4.41;100.00
8286;BME280;4181;43.416;24.598;2023-01-28T04:10:39;99761.59;;;4.27;100.00
8286;BME280;4181;43.416;24.598;2023-01-28T04:13:05;99763.28;;;4.21;100.00
8286;BME280;4181;43.416;24.598;2023-01-28T04:15:31;99756.59;;;4.30;100.00
8286;BME280;4181;43.416;24.598;2023-01-28T04:17:56;99759.69;;;4.34;100.00
8286;BME280;4181;43.416;24.598;2023-01-28T04:20:21;99764.78;;;4.42;100.00
8286;BME280;4181;43.416;24.598;2023-01-28T04:22:47;99770.81;;;4.13;100.00
8286;BME280;4181;43.416;24.598;2023-01-28T04:25:12;99775.59;;;4.11;100.00
8286;BME280;4181;43.416;24.598;2023-01-28T04:27:38;99771.00;;;4.18;100.00
8286;BME280;4181;43.416;24.598;2023-01-28T04:30:03;99763.22;;;4.28;100.00
8286;BME280;4181;43.416;24.598;2023-01-28T04:32:29;99762.38;;;4.34;100.00
8286;BME280;4181;43.416;24.598;2023-01-28T04:34:55;99781.63;;;4.13;100.00
8286;BME280;4181;43.416;24.598;2023-01-28T04:37:20;99779.97;;;4.12;100.00
8286;BME280;4181;43.416;24.598;2023-01-28T04:39:45;99782.34;;;4.26;100.00
8286;BME280;4181;43.416;24.598;2023-01-28T04:42:11;99775.22;;;4.38;100.00
8286;BME280;4181;43.416;24.598;2023-01-28T04:44:36;99781.97;;;4.23;100.00
8286;BME280;4181;43.416;24.598;2023-01-28T04:47:01;99788.94;;;4.06;100.00
8286;BME280;4181;43.416;24.598;2023-01-28T04:49:27;99788.59;;;4.27;100.00
8286;BME280;4181;43.416;24.598;2023-01-28T04:51:52;99789.78;;;4.31;100.00
8286;BME280;4181;43.416;24.598;2023-01-28T04:54:18;99789.38;;;4.34;100.00
8286;BME280;4181;43.416;24.598;2023-01-28T04:56:43;99801.16;;;4.39;100.00
8286;BME280;4181;43.416;24.598;2023-01-28T04:59:08;99802.78;;;4.16;100.00
8286;BME280;4181;43.416;24.598;2023-01-28T05:01:34;99808.53;;;4.26;100.00
8286;BME280;4181;43.416;24.598;2023-01-28T05:03:59;99803.91;;;4.33;100.00
8286;BME280;4181;43.416;24.598;2023-01-28T05:06:32;99799.06;;;4.41;100.00
8286;BME280;4181;43.416;24.598;2023-01-28T05:08:58;99819.91;;;4.03;100.00
8286;BME280;4181;43.416;24.598;2023-01-28T05:11:24;99810.69;;;4.11;100.00
8286;BME280;4181;43.416;24.598;2023-01-28T05:13:50;99815.88;;;4.19;100.00
8286;BME280;4181;43.416;24.598;2023-01-28T05:16:15;99817.69;;;4.25;100.00
8286;BME280;4181;43.416;24.598;2023-01-28T05:18:41;99827.28;;;4.14;100.00
8286;BME280;4181;43.416;24.598;2023-01-28T05:21:06;99822.03;;;3.95;100.00
8286;BME280;4181;43.416;24.598;2023-01-28T05:23:32;99821.94;;;4.08;100.00
8286;BME280;4181;43.416;24.598;2023-01-28T05:25:57;99824.59;;;4.14;100.00
8286;BME280;4181;43.416;24.598;2023-01-28T05:28:23;99826.91;;;4.11;100.00
8286;BME280;4181;43.416;24.598;2023-01-28T05:30:48;99829.41;;;4.06;100.00
8286;BME280;4181;43.416;24.598;2023-01-28T05:33:14;99823.66;;;3.96;100.00
8286;BME280;4181;43.416;24.598;2023-01-28T05:35:41;99839.19;;;4.07;100.00
8286;BME280;4181;43.416;24.598;2023-01-28T05:38:06;99836.13;;;3.97;100.00
8286;BME280;4181;43.416;24.598;2023-01-28T05:40:32;99839.94;;;3.82;100.00
8286;BME280;4181;43.416;24.598;2023-01-28T05:42:57;99841.47;;;3.72;100.00
8286;BME280;4181;43.416;24.598;2023-01-28T05:45:23;99846.50;;;3.49;100.00
8286;BME280;4181;43.416;24.598;2023-01-28T05:47:48;99844.22;;;3.52;100.00
8286;BME280;4181;43.416;24.598;2023-01-28T05:50:14;99839.63;;;3.59;100.00
8286;BME280;4181;43.416;24.598;2023-01-28T05:52:40;99832.00;;;3.50;100.00
8286;BME280;4181;43.416;24.598;2023-01-28T05:55:05;99838.06;;;3.32;100.00
8286;BME280;4181;43.416;24.598;2023-01-28T05:57:31;99833.47;;;3.39;100.00
8286;BME280;4181;43.416;24.598;2023-01-28T05:59:57;99829.09;;;3.45;100.00
8286;BME280;4181;43.416;24.598;2023-01-28T06:02:22;99830.75;;;3.46;100.00
8286;BME280;4181;43.416;24.598;2023-01-28T06:04:48;99827.44;;;3.44;100.00
8286;BME280;4181;43.416;24.598;2023-01-28T06:07:13;99842.38;;;3.46;100.00
8286;BME280;4181;43.416;24.598;2023-01-28T06:09:43;99843.81;;;3.42;100.00
8286;BME280;4181;43.416;24.598;2023-01-28T06:12:09;99845.91;;;3.47;100.00
8286;BME280;4181;43.416;24.598;2023-01-28T06:14:34;99851.34;;;3.27;100.00
8286;BME280;4181;43.416;24.598;2023-01-28T06:17:00;99850.09;;;3.30;100.00
8286;BME280;4181;43.416;24.598;2023-01-28T06:19:25;99857.56;;;3.28;100.00
8286;BME280;4181;43.416;24.598;2023-01-28T06:21:51;99867.50;;;3.27;100.00
8286;BME280;4181;43.416;24.598;2023-01-28T06:24:16;99863.78;;;3.28;100.00
8286;BME280;4181;43.416;24.598;2023-01-28T06:26:41;99870.00;;;3.22;100.00
8286;BME280;4181;43.416;24.598;2023-01-28T06:29:07;99873.91;;;3.39;100.00
8286;BME280;4181;43.416;24.598;2023-01-28T06:31:32;99880.75;;;3.48;100.00
8286;BME280;4181;43.416;24.598;2023-01-28T06:33:58;99884.06;;;3.50;100.00
8286;BME280;4181;43.416;24.598;2023-01-28T06:36:23;99882.81;;;3.46;100.00
8286;BME280;4181;43.416;24.598;2023-01-28T06:38:49;99885.72;;;3.45;100.00
8286;BME280;4181;43.416;24.598;2023-01-28T06:41:14;99882.41;;;3.43;100.00
8286;BME280;4181;43.416;24.598;2023-01-28T06:43:39;99890.25;;;3.57;100.00
8286;BME280;4181;43.416;24.598;2023-01-28T06:46:05;99889.44;;;3.57;100.00
8286;BME280;4181;43.416;24.598;2023-01-28T06:48:30;99887.34;;;3.52;100.00
8286;BME280;4181;43.416;24.598;2023-01-28T06:50:56;99893.81;;;3.45;100.00
8286;BME280;4181;43.416;24.598;2023-01-28T06:53:22;99890.25;;;3.57;100.00
8286;BME280;4181;43.416;24.598;2023-01-28T06:55:47;99884.44;;;3.67;100.00
8286;BME280;4181;43.416;24.598;2023-01-28T06:58:18;99886.28;;;3.66;100.00
8286;BME280;4181;43.416;24.598;2023-01-28T07:00:48;99894.38;;;3.66;100.00
8286;BME280;4181;43.416;24.598;2023-01-28T07:03:14;99891.53;;;3.48;100.00
8286;BME280;4181;43.416;24.598;2023-01-28T07:05:39;99903.31;;;3.67;100.00
8286;BME280;4181;43.416;24.598;2023-01-28T07:08:05;99900.78;;;3.78;100.00
8286;BME280;4181;43.416;24.598;2023-01-28T07:10:30;99899.97;;;3.71;100.00
8286;BME280;4181;43.416;24.598;2023-01-28T07:12:56;99900.31;;;3.88;100.00
8286;BME280;4181;43.416;24.598;2023-01-28T07:15:21;99914.22;;;3.92;100.00
8286;BME280;4181;43.416;24.598;2023-01-28T07:17:48;99927.34;;;3.81;100.00
8286;BME280;4181;43.416;24.598;2023-01-28T07:20:14;99929.84;;;3.70;100.00
8286;BME280;4181;43.416;24.598;2023-01-28T07:22:41;99930.88;;;3.82;100.00
8286;BME280;4181;43.416;24.598;2023-01-28T07:25:08;99926.47;;;3.87;100.00
8286;BME280;4181;43.416;24.598;2023-01-28T07:27:34;99920.47;;;3.85;100.00
8286;BME280;4181;43.416;24.598;2023-01-28T07:29:59;99923.75;;;3.87;100.00
8286;BME280;4181;43.416;24.598;2023-01-28T07:32:25;99935.13;;;4.03;100.00
8286;BME280;4181;43.416;24.598;2023-01-28T07:34:53;99932.88;;;4.00;100.00
8286;BME280;4181;43.416;24.598;2023-01-28T07:37:19;99949.44;;;4.10;100.00
8286;BME280;4181;43.416;24.598;2023-01-28T07:39:45;99944.84;;;4.17;100.00
8286;BME280;4181;43.416;24.598;2023-01-28T07:42:11;99950.25;;;4.17;100.00
8286;BME280;4181;43.416;24.598;2023-01-28T07:44:37;99945.63;;;4.24;100.00
8286;BME280;4181;43.416;24.598;2023-01-28T07:47:04;99954.38;;;4.19;100.00
8286;BME280;4181;43.416;24.598;2023-01-28T07:49:30;99971.47;;;4.07;100.00
8286;BME280;4181;43.416;24.598;2023-01-28T07:51:55;99960.03;;;4.05;100.00
8286;BME280;4181;43.416;24.598;2023-01-28T07:54:21;99972.28;;;4.14;100.00
8286;BME280;4181;43.416;24.598;2023-01-28T07:56:46;99968.38;;;3.97;100.00
8286;BME280;4181;43.416;24.598;2023-01-28T07:59:12;99968.94;;;4.12;100.00
8286;BME280;4181;43.416;24.598;2023-01-28T08:01:37;99974.59;;;4.04;100.00
8286;BME280;4181;43.416;24.598;2023-01-28T08:04:02;99972.09;;;4.09;100.00
8286;BME280;4181;43.416;24.598;2023-01-28T08:06:28;99974.81;;;3.96;100.00
8286;BME280;4181;43.416;24.598;2023-01-28T08:08:54;99980.03;;;3.84;100.00
8286;BME280;4181;43.416;24.598;2023-01-28T08:11:19;99969.78;;;4.06;100.00
8286;BME280;4181;43.416;24.598;2023-01-28T08:13:45;99967.91;;;4.13;100.00
8286;BME280;4181;43.416;24.598;2023-01-28T08:16:10;99973.50;;;4.11;100.00
8286;BME280;4181;43.416;24.598;2023-01-28T08:18:36;99974.25;;;4.31;100.00
8286;BME280;4181;43.416;24.598;2023-01-28T08:21:02;99975.06;;;4.38;100.00
8286;BME280;4181;43.416;24.598;2023-01-28T08:23:29;99982.34;;;4.31;100.00
8286;BME280;4181;43.416;24.598;2023-01-28T08:25:57;99994.44;;;4.29;100.00
8286;BME280;4181;43.416;24.598;2023-01-28T08:28:23;100003.97;;;4.31;100.00
8286;BME280;4181;43.416;24.598;2023-01-28T08:30:50;100012.53;;;4.22;100.00
8286;BME280;4181;43.416;24.598;2023-01-28T08:33:17;100016.25;;;4.27;100.00
8286;BME280;4181;43.416;24.598;2023-01-28T08:35:43;100026.66;;;4.17;100.00
8286;BME280;4181;43.416;24.598;2023-01-28T08:38:10;100017.09;;;4.15;100.00
8286;BME280;4181;43.416;24.598;2023-01-28T08:40:36;100020.59;;;4.28;100.00
8286;BME280;4181;43.416;24.598;2023-01-28T08:43:01;100014.28;;;4.47;100.00
8286;BME280;4181;43.416;24.598;2023-01-28T08:45:27;100001.66;;;4.72;100.00
8286;BME280;4181;43.416;24.598;2023-01-28T08:47:55;100015.34;;;4.84;100.00
8286;BME280;4181;43.416;24.598;2023-01-28T08:50:23;100001.91;;;5.02;100.00
8286;BME280;4181;43.416;24.598;2023-01-28T08:52:56;100016.41;;;5.07;100.00
8286;BME280;4181;43.416;24.598;2023-01-28T08:55:23;100009.31;;;5.13;100.00
8286;BME280;4181;43.416;24.598;2023-01-28T08:57:48;100021.59;;;5.15;100.00
8286;BME280;4181;43.416;24.598;2023-01-28T09:00:14;100025.41;;;5.01;100.00
8286;BME280;4181;43.416;24.598;2023-01-28T09:02:40;100025.00;;;4.98;100.00
8286;BME280;4181;43.416;24.598;2023-01-28T09:05:06;100035.16;;;5.09;100.00
8286;BME280;4181;43.416;24.598;2023-01-28T09:07:36;100034.81;;;5.24;100.00
8286;BME280;4181;43.416;24.598;2023-01-28T09:10:02;100043.56;;;5.26;100.00
8286;BME280;4181;43.416;24.598;2023-01-28T09:12:28;100049.81;;;5.19;100.00
8286;BME280;4181;43.416;24.598;2023-01-28T09:14:54;100033.44;;;5.39;100.00
8286;BME280;4181;43.416;24.598;2023-01-28T09:17:20;100034.09;;;5.35;100.00
8286;BME280;4181;43.416;24.598;2023-01-28T09:19:45;100037.53;;;5.48;100.00
8286;BME280;4181;43.416;24.598;2023-01-28T09:22:11;100034.84;;;5.48;100.00
8286;BME280;4181;43.416;24.598;2023-01-28T09:24:36;100038.44;;;5.42;100.00
8286;BME280;4181;43.416;24.598;2023-01-28T09:27:02;100029.13;;;5.56;100.00
8286;BME280;4181;43.416;24.598;2023-01-28T09:29:27;100035.72;;;5.42;100.00
8286;BME280;4181;43.416;24.598;2023-01-28T09:31:53;100036.94;;;5.46;100.00
8286;BME280;4181;43.416;24.598;2023-01-28T09:34:19;100020.06;;;5.51;100.00
8286;BME280;4181;43.416;24.598;2023-01-28T09:36:44;100011.78;;;5.46;100.00
8286;BME280;4181;43.416;24.598;2023-01-28T09:39:09;100012.63;;;5.64;100.00
8286;BME280;4181;43.416;24.598;2023-01-28T09:44:57;100006.50;;;5.75;100.00
8286;BME280;4181;43.416;24.598;2023-01-28T09:47:31;100007.69;;;5.79;100.00
8286;BME280;4181;43.416;24.598;2023-01-28T09:50:01;100015.56;;;5.87;100.00
8286;BME280;4181;43.416;24.598;2023-01-28T09:52:33;100013.63;;;5.70;100.00
8286;BME280;4181;43.416;24.598;2023-01-28T09:57:50;100008.53;;;5.80;100.00
8286;BME280;4181;43.416;24.598;2023-01-28T10:00:21;100021.81;;;5.63;100.00
8286;BME280;4181;43.416;24.598;2023-01-28T10:03:15;100017.00;;;5.65;100.00
8286;BME280;4181;43.416;24.598;2023-01-28T10:06:11;100006.72;;;5.74;100.00
8286;BME280;4181;43.416;24.598;2023-01-28T10:11:39;100010.00;;;5.82;100.00
8286;BME280;4181;43.416;24.598;2023-01-28T10:14:54;100009.50;;;5.67;100.00
8286;BME280;4181;43.416;24.598;2023-01-28T10:17:28;100019.63;;;5.72;100.00
8286;BME280;4181;43.416;24.598;2023-01-28T10:22:36;100018.28;;;5.81;100.00
8286;BME280;4181;43.416;24.598;2023-01-28T10:25:30;100014.16;;;5.78;100.00
8286;BME280;4181;43.416;24.598;2023-01-28T10:27:55;100014.97;;;5.85;100.00
8286;BME280;4181;43.416;24.598;2023-01-28T10:32:59;100015.22;;;5.77;100.00
8286;BME280;4181;43.416;24.598;2023-01-28T10:35:30;100015.06;;;5.72;100.00
8286;BME280;4181;43.416;24.598;2023-01-28T10:38:00;100010.91;;;5.70;100.00
8286;BME280;4181;43.416;24.598;2023-01-28T10:40:30;100004.25;;;5.72;100.00
8286;BME280;4181;43.416;24.598;2023-01-28T10:42:56;100007.50;;;5.56;100.00
8286;BME280;4181;43.416;24.598;2023-01-28T10:45:35;99996.50;;;5.76;100.00
8286;BME280;4181;43.416;24.598;2023-01-28T10:48:08;100001.59;;;5.66;100.00
8286;BME280;4181;43.416;24.598;2023-01-28T10:50:37;99993.63;;;5.71;100.00
8286;BME280;4181;43.416;24.598;2023-01-28T10:53:13;99999.63;;;5.73;100.00
8286;BME280;4181;43.416;24.598;2023-01-28T10:55:50;99999.41;;;5.74;100.00
8286;BME280;4181;43.416;24.598;2023-01-28T10:58:22;100007.91;;;5.78;100.00
8286;BME280;4181;43.416;24.598;2023-01-28T11:01:04;100003.19;;;5.73;100.00
8286;BME280;4181;43.416;24.598;2023-01-28T11:03:30;99992.97;;;5.75;100.00
8286;BME280;4181;43.416;24.598;2023-01-28T11:05:57;100003.34;;;5.78;100.00
8286;BME280;4181;43.416;24.598;2023-01-28T11:08:25;100001.44;;;5.85;100.00
8286;BME280;4181;43.416;24.598;2023-01-28T11:10:53;99998.88;;;5.90;100.00
8286;BME280;4181;43.416;24.598;2023-01-28T11:13:28;100002.19;;;5.92;100.00
8286;BME280;4181;43.416;24.598;2023-01-28T11:16:06;100002.19;;;5.92;100.00
8286;BME280;4181;43.416;24.598;2023-01-28T11:18:47;100003.84;;;5.93;100.00
8286;BME280;4181;43.416;24.598;2023-01-28T11:21:18;100002.22;;;5.86;100.00
8286;BME280;4181;43.416;24.598;2023-01-28T11:23:54;100007.97;;;5.96;100.00
8286;BME280;4181;43.416;24.598;2023-01-28T11:26:34;100007.44;;;5.87;100.00
8286;BME280;4181;43.416;24.598;2023-01-28T11:29:02;100003.91;;;5.87;100.00
8286;BME280;4181;43.416;24.598;2023-01-28T11:31:28;100009.25;;;5.69;100.00
8286;BME280;4181;43.416;24.598;2023-01-28T11:34:03;100006.50;;;5.75;100.00
8286;BME280;4181;43.416;24.598;2023-01-28T11:36:32;99999.75;;;5.84;100.00
8286;BME280;4181;43.416;24.598;2023-01-28T11:39:00;100003.69;;;5.64;100.00
8286;BME280;4181;43.416;24.598;2023-01-28T11:41:31;99996.53;;;5.69;100.00
8286;BME280;4181;43.416;24.598;2023-01-28T11:43:59;100000.53;;;5.67;100.00
8286;BME280;4181;43.416;24.598;2023-01-28T12:11:54;99978.34;;;5.76;100.00
8286;BME280;4181;43.416;24.598;2023-01-28T12:26:09;99955.78;;;5.89;100.00
8286;BME280;4181;43.416;24.598;2023-01-28T12:31:37;99962.84;;;6.08;100.00
8286;BME280;4181;43.416;24.598;2023-01-28T12:45:20;99986.97;;;6.09;100.00
8286;BME280;4181;43.416;24.598;2023-01-28T12:47:52;99988.81;;;5.97;100.00
8286;BME280;4181;43.416;24.598;2023-01-28T12:50:27;99977.06;;;6.03;100.00
8286;BME280;4181;43.416;24.598;2023-01-28T12:52:59;99979.16;;;6.01;100.00
8286;BME280;4181;43.416;24.598;2023-01-28T12:55:37;99982.94;;;6.00;100.00
8286;BME280;4181;43.416;24.598;2023-01-28T12:58:06;99979.91;;;6.08;100.00
8286;BME280;4181;43.416;24.598;2023-01-28T13:00:40;99992.53;;;5.96;100.00
8286;BME280;4181;43.416;24.598;2023-01-28T13:03:35;99992.09;;;5.99;100.00
8286;BME280;4181;43.416;24.598;2023-01-28T13:06:09;99987.66;;;6.05;100.00
8286;BME280;4181;43.416;24.598;2023-01-28T13:08:37;99995.72;;;6.11;100.00
8286;BME280;4181;43.416;24.598;2023-01-28T13:11:03;100003.22;;;6.09;100.00
8286;BME280;4181;43.416;24.598;2023-01-28T13:13:32;100018.59;;;5.97;100.00
8286;BME280;4181;43.416;24.598;2023-01-28T13:15:58;100023.09;;;6.03;100.00
8286;BME280;4181;43.416;24.598;2023-01-28T13:20:59;100030.00;;;5.99;100.00
8286;BME280;4181;43.416;24.598;2023-01-28T13:26:26;100025.03;;;5.96;100.00
8286;BME280;4181;43.416;24.598;2023-01-28T13:28:53;100024.03;;;5.91;100.00
8286;BME280;4181;43.416;24.598;2023-01-28T13:31:37;100020.47;;;5.97;100.00
8286;BME280;4181;43.416;24.598;2023-01-28T13:34:04;100035.50;;;5.93;100.00
8286;BME280;4181;43.416;24.598;2023-01-28T13:36:36;100039.25;;;5.92;100.00
8286;BME280;4181;43.416;24.598;2023-01-28T13:41:38;100029.63;;;5.71;100.00
8286;BME280;4181;43.416;24.598;2023-01-28T13:44:36;100035.28;;;5.70;100.00
8286;BME280;4181;43.416;24.598;2023-01-28T13:49:33;100031.94;;;5.68;100.00
8286;BME280;4181;43.416;24.598;2023-01-28T14:14:54;100041.63;;;5.57;100.00
8286;BME280;4181;43.416;24.598;2023-01-28T14:17:52;100034.06;;;5.66;100.00
8286;BME280;4181;43.416;24.598;2023-01-28T14:22:50;100050.84;;;5.50;100.00
8286;BME280;4181;43.416;24.598;2023-01-28T14:25:47;100038.88;;;5.64;100.00
8286;BME280;4181;43.416;24.598;2023-01-28T14:28:28;100042.44;;;5.58;100.00
8286;BME280;4181;43.416;24.598;2023-01-28T14:31:07;100041.31;;;5.47;100.00
8286;BME280;4181;43.416;24.598;2023-01-28T14:33:35;100042.63;;;5.38;100.00
8286;BME280;4181;43.416;24.598;2023-01-28T14:36:01;100041.84;;;5.31;100.00
8286;BME280;4181;43.416;24.598;2023-01-28T14:38:27;100042.44;;;5.33;100.00
8286;BME280;4181;43.416;24.598;2023-01-28T14:40:53;100049.72;;;5.33;100.00
8286;BME280;4181;43.416;24.598;2023-01-28T14:43:22;100042.63;;;5.38;100.00
8286;BME280;4181;43.416;24.598;2023-01-28T14:51:39;100049.03;;;5.12;100.00
8286;BME280;4181;43.416;24.598;2023-01-28T14:54:10;100049.88;;;5.13;100.00
8286;BME280;4181;43.416;24.598;2023-01-28T15:01:43;100041.06;;;4.93;100.00
8286;BME280;4181;43.416;24.598;2023-01-28T15:04:31;100035.16;;;5.09;100.00
8286;BME280;4181;43.416;24.598;2023-01-28T15:07:05;100050.72;;;5.13;100.00
8286;BME280;4181;43.416;24.598;2023-01-28T15:09:39;100051.59;;;5.01;100.00
8286;BME280;4181;43.416;24.598;2023-01-28T15:12:05;100048.91;;;5.01;100.00
8286;BME280;4181;43.416;24.598;2023-01-28T15:14:32;100056.84;;;4.96;100.00
8286;BME280;4181;43.416;24.598;2023-01-28T15:16:59;100066.22;;;4.93;100.00
8286;BME280;4181;43.416;24.598;2023-01-28T15:19:30;100057.28;;;4.93;100.00
8286;BME280;4181;43.416;24.598;2023-01-28T15:21:58;100052.66;;;5.00;100.00
8286;BME280;4181;43.416;24.598;2023-01-28T15:24:25;100057.06;;;4.94;100.00
8286;BME280;4181;43.416;24.598;2023-01-28T15:26:51;100059.72;;;5.01;100.00
8286;BME280;4181;43.416;24.598;2023-01-28T15:29:34;100056.97;;;5.07;100.00
8286;BME280;4181;43.416;24.598;2023-01-28T15:32:01;100064.53;;;4.99;100.00
8286;BME280;4181;43.416;24.598;2023-01-28T15:34:27;100066.22;;;4.93;100.00
8286;BME280;4181;43.416;24.598;2023-01-28T15:37:00;100058.06;;;5.00;100.00